Time;durP1;ratioP1;P1;durP2;ratioP2;P2;SDS_P1;SDS_P2;PMS_P1;PMS_P2;Temp;Humidity;BMP_temperature;BMP_pressure;BME280_temperature;BME280_humidity;BME280_pressure;Samples;Min_cycle;Max_cycle;Signal;HPM_P1;HPM_P2
2021/07/18 00:00:35;;;;;;;4.25;2.28;;;23.00;99.90;;;;;;5051276;28;20025;-69
2021/07/18 00:03:00;;;;;;;3.58;2.50;;;23.00;99.90;;;;;;5049630;28;20087;-69
2021/07/18 00:05:26;;;;;;;3.22;2.00;;;22.90;99.90;;;;;;5051232;28;20102;-69
2021/07/18 00:07:52;;;;;;;3.42;2.13;;;22.90;99.90;;;;;;5051101;28;20052;-69
2021/07/18 00:10:17;;;;;;;3.70;2.55;;;22.90;99.90;;;;;;5051126;28;20420;-69
2021/07/18 00:12:43;;;;;;;3.35;2.25;;;22.90;99.90;;;;;;5050843;28;20053;-69
2021/07/18 00:15:11;;;;;;;2.63;2.15;;;22.90;99.90;;;;;;5050072;28;20491;-69
2021/07/18 00:17:38;;;;;;;3.90;2.40;;;22.90;99.90;;;;;;5050916;28;20031;-69
2021/07/18 00:20:06;;;;;;;3.75;2.47;;;22.90;99.90;;;;;;5050601;28;20070;-70
2021/07/18 00:22:32;;;;;;;3.20;2.03;;;22.90;99.90;;;;;;5050773;28;20071;-70
2021/07/18 00:24:58;;;;;;;3.95;2.67;;;22.90;99.90;;;;;;5050976;28;20056;-69
2021/07/18 00:27:23;;;;;;;3.35;2.33;;;22.80;99.90;;;;;;5050300;28;20082;-69
2021/07/18 00:29:49;;;;;;;3.33;2.60;;;22.80;99.90;;;;;;5050075;28;20025;-69
2021/07/18 00:32:14;;;;;;;3.05;2.05;;;22.80;99.90;;;;;;5050985;28;20377;-69
2021/07/18 00:34:40;;;;;;;3.08;2.40;;;22.80;99.90;;;;;;5049547;28;20461;-70
2021/07/18 00:37:06;;;;;;;5.40;2.40;;;22.80;99.90;;;;;;5051137;28;20044;-69
2021/07/18 00:39:32;;;;;;;3.25;2.13;;;22.80;99.90;;;;;;5051082;28;20493;-69
2021/07/18 00:41:57;;;;;;;2.92;2.22;;;22.70;99.90;;;;;;5050818;28;20021;-69
2021/07/18 00:44:23;;;;;;;2.92;2.08;;;22.70;99.90;;;;;;5050721;28;20504;-69
2021/07/18 00:46:48;;;;;;;4.05;2.55;;;22.70;99.90;;;;;;5050531;28;20170;-69
2021/07/18 00:49:14;;;;;;;2.70;2.17;;;22.70;99.90;;;;;;5050492;28;20055;-69
2021/07/18 00:51:40;;;;;;;3.38;2.28;;;22.70;99.90;;;;;;5050811;28;20530;-69
2021/07/18 00:54:06;;;;;;;3.53;2.25;;;22.70;99.90;;;;;;5050966;28;20112;-69
2021/07/18 00:56:32;;;;;;;3.33;2.17;;;22.70;99.90;;;;;;5050820;28;20040;-68
2021/07/18 00:58:58;;;;;;;2.83;2.13;;;22.70;99.90;;;;;;5049917;28;20481;-69
2021/07/18 01:01:26;;;;;;;4.70;2.63;;;22.70;99.90;;;;;;5050242;28;20017;-69
2021/07/18 01:03:51;;;;;;;2.58;2.35;;;22.70;99.90;;;;;;5050600;28;20029;-69
2021/07/18 01:06:17;;;;;;;3.90;2.45;;;22.70;99.90;;;;;;5050580;28;20037;-69
2021/07/18 01:08:43;;;;;;;3.40;2.20;;;22.70;99.90;;;;;;5050573;28;20029;-69
2021/07/18 01:11:09;;;;;;;2.40;2.10;;;22.60;99.90;;;;;;5050821;28;20115;-69
2021/07/18 01:13:34;;;;;;;3.78;2.35;;;22.60;99.90;;;;;;5050880;28;20105;-69
2021/07/18 01:16:00;;;;;;;3.50;2.45;;;22.60;99.90;;;;;;5048712;28;20103;-69
2021/07/18 01:18:26;;;;;;;3.55;2.45;;;22.60;99.90;;;;;;5050449;28;20096;-69
2021/07/18 01:20:53;;;;;;;3.33;2.30;;;22.60;99.90;;;;;;5050043;28;20036;-69
2021/07/18 01:23:19;;;;;;;3.10;2.58;;;22.60;99.90;;;;;;5050445;28;20036;-69
2021/07/18 01:25:48;;;;;;;2.92;2.35;;;22.60;99.90;;;;;;5050408;28;20074;-69
2021/07/18 01:28:14;;;;;;;3.33;2.30;;;22.60;99.90;;;;;;5050597;28;20029;-69
2021/07/18 01:30:41;;;;;;;2.85;2.30;;;22.50;99.90;;;;;;5052795;28;20070;-70
2021/07/18 01:33:07;;;;;;;3.40;2.20;;;22.50;99.90;;;;;;5054333;28;20033;-69
2021/07/18 01:35:33;;;;;;;3.35;2.20;;;22.50;99.90;;;;;;5054095;28;20024;-69
2021/07/18 01:38:06;;;;;;;2.58;2.35;;;22.50;99.90;;;;;;5053619;28;20481;-69
2021/07/18 01:40:32;;;;;;;2.65;2.22;;;22.50;99.90;;;;;;5053816;28;20044;-69
2021/07/18 01:42:57;;;;;;;3.67;2.55;;;22.50;99.90;;;;;;5053272;28;20028;-69
2021/07/18 01:45:23;;;;;;;3.25;2.40;;;22.50;99.90;;;;;;5053782;28;20457;-68
2021/07/18 01:47:49;;;;;;;2.63;2.13;;;22.50;99.90;;;;;;5053593;28;20121;-68
2021/07/18 01:50:15;;;;;;;2.70;2.10;;;22.50;99.90;;;;;;5053800;28;20109;-69
2021/07/18 01:52:41;;;;;;;3.30;2.28;;;22.50;99.90;;;;;;5053235;28;20087;-69
2021/07/18 01:55:08;;;;;;;2.92;2.17;;;22.40;99.90;;;;;;5052436;28;20033;-69
2021/07/18 01:57:34;;;;;;;2.75;2.13;;;22.40;99.90;;;;;;5052337;28;20075;-69
2021/07/18 02:00:00;;;;;;;2.80;2.38;;;22.40;99.90;;;;;;5053101;28;20754;-69
2021/07/18 02:02:25;;;;;;;4.07;2.45;;;22.40;99.90;;;;;;5053450;28;20366;-69
2021/07/18 02:04:51;;;;;;;4.25;2.40;;;22.40;99.90;;;;;;5052986;28;20430;-69
2021/07/18 02:07:17;;;;;;;2.75;2.10;;;22.40;99.90;;;;;;5052262;28;20481;-69
2021/07/18 02:09:43;;;;;;;3.60;2.50;;;22.40;99.90;;;;;;5052808;28;20481;-69
2021/07/18 02:12:10;;;;;;;2.65;2.00;;;22.40;99.90;;;;;;5053847;28;20432;-68
2021/07/18 02:14:41;;;;;;;2.70;2.05;;;22.30;99.90;;;;;;5053559;28;20021;-69
2021/07/18 02:17:08;;;;;;;4.00;2.38;;;22.40;99.90;;;;;;5053524;28;20109;-69
2021/07/18 02:19:34;;;;;;;3.10;2.28;;;22.40;99.90;;;;;;5052572;28;20473;-69
2021/07/18 02:22:00;;;;;;;3.25;2.13;;;22.30;99.90;;;;;;5052840;28;20598;-69
2021/07/18 02:24:26;;;;;;;3.40;2.20;;;22.30;99.90;;;;;;5053227;28;20025;-69
2021/07/18 02:26:52;;;;;;;2.90;2.30;;;22.30;99.90;;;;;;5052650;28;20032;-69
2021/07/18 02:29:18;;;;;;;3.30;2.35;;;22.30;99.90;;;;;;5053119;28;20025;-69
2021/07/18 02:31:44;;;;;;;2.95;2.33;;;22.30;99.90;;;;;;5052148;28;20473;-68
2021/07/18 02:34:10;;;;;;;5.28;2.80;;;22.30;99.90;;;;;;5052693;28;20012;-68
2021/07/18 02:36:36;;;;;;;2.70;2.05;;;22.30;99.90;;;;;;5052933;28;20536;-68
2021/07/18 02:39:02;;;;;;;3.50;2.28;;;22.30;99.90;;;;;;5052777;28;20104;-68
2021/07/18 02:41:28;;;;;;;3.05;2.60;;;22.30;99.90;;;;;;5052713;28;20155;-69
2021/07/18 02:43:53;;;;;;;2.90;2.28;;;22.20;99.90;;;;;;5052362;28;20028;-69
2021/07/18 02:46:20;;;;;;;3.30;2.50;;;22.20;99.90;;;;;;5052717;28;20082;-70
2021/07/18 02:48:47;;;;;;;3.42;2.20;;;22.20;99.90;;;;;;5052571;28;20477;-69
2021/07/18 02:51:12;;;;;;;3.25;2.40;;;22.20;99.90;;;;;;5052930;28;20033;-69
2021/07/18 02:53:38;;;;;;;2.72;2.38;;;22.20;99.90;;;;;;5051227;28;20025;-69
2021/07/18 02:56:04;;;;;;;2.58;2.08;;;22.20;99.90;;;;;;5052357;28;20057;-69
2021/07/18 02:58:30;;;;;;;3.47;2.60;;;22.20;99.90;;;;;;5052182;28;20029;-69
2021/07/18 03:00:56;;;;;;;3.33;2.38;;;22.20;99.90;;;;;;5051872;28;20465;-69
2021/07/18 03:03:21;;;;;;;4.40;2.58;;;22.20;99.90;;;;;;5052239;28;20213;-69
2021/07/18 03:05:48;;;;;;;3.25;2.35;;;22.20;99.90;;;;;;5050825;28;20115;-69
2021/07/18 03:08:13;;;;;;;3.03;2.38;;;22.10;99.90;;;;;;5052111;28;20512;-69
2021/07/18 03:10:39;;;;;;;4.53;2.60;;;22.10;99.90;;;;;;5052361;28;20028;-69
2021/07/18 03:13:05;;;;;;;3.08;2.50;;;22.20;99.90;;;;;;5052282;28;20389;-69
2021/07/18 03:15:31;;;;;;;3.28;2.80;;;22.10;99.90;;;;;;5051785;28;20025;-70
2021/07/18 03:17:56;;;;;;;2.53;2.10;;;22.10;99.90;;;;;;5051548;28;20389;-70
2021/07/18 03:20:23;;;;;;;4.88;2.70;;;22.10;99.90;;;;;;5051574;28;20047;-69
2021/07/18 03:22:49;;;;;;;2.72;2.50;;;22.10;99.90;;;;;;5051480;28;20035;-69
2021/07/18 03:25:16;;;;;;;3.42;2.60;;;22.10;99.90;;;;;;5050682;28;20028;-69
2021/07/18 03:27:43;;;;;;;4.47;2.78;;;22.10;99.90;;;;;;5051818;28;20029;-69
2021/07/18 03:30:11;;;;;;;3.05;2.33;;;22.10;99.90;;;;;;5050516;28;20029;-69
2021/07/18 03:32:37;;;;;;;3.30;2.50;;;22.10;99.90;;;;;;5051409;28;20070;-69
2021/07/18 03:35:05;;;;;;;4.80;2.65;;;22.00;99.90;;;;;;5051524;28;20397;-69
2021/07/18 03:37:31;;;;;;;3.10;2.70;;;22.00;99.90;;;;;;5051480;28;20041;-69
2021/07/18 03:39:56;;;;;;;4.00;2.58;;;22.00;99.90;;;;;;5051301;28;20048;-70
2021/07/18 03:42:22;;;;;;;3.03;2.40;;;22.00;99.90;;;;;;5052008;28;20036;-69
2021/07/18 03:44:48;;;;;;;3.70;2.72;;;22.00;99.90;;;;;;5051077;28;20029;-69
2021/07/18 03:47:14;;;;;;;2.80;2.22;;;22.00;99.90;;;;;;5051503;28;20075;-69
2021/07/18 03:49:40;;;;;;;3.03;2.72;;;22.00;99.90;;;;;;5051470;28;20078;-68
2021/07/18 03:52:06;;;;;;;2.90;2.30;;;22.00;99.90;;;;;;5050218;28;20033;-69
2021/07/18 03:54:32;;;;;;;4.22;2.78;;;22.00;99.90;;;;;;5051527;28;20185;-69
2021/07/18 03:56:57;;;;;;;3.50;2.88;;;22.00;99.90;;;;;;5050943;28;20056;-69
2021/07/18 03:59:23;;;;;;;3.85;2.67;;;22.00;99.90;;;;;;5051567;28;20028;-69
2021/07/18 04:01:50;;;;;;;3.38;2.58;;;22.00;99.90;;;;;;5051435;28;20354;-70
2021/07/18 04:04:15;;;;;;;3.33;2.50;;;22.00;99.90;;;;;;5049519;28;20047;-69
2021/07/18 04:06:41;;;;;;;3.85;2.70;;;22.00;99.90;;;;;;5050668;28;20026;-68
2021/07/18 04:09:07;;;;;;;3.30;2.40;;;21.90;99.90;;;;;;5051629;28;20043;-69
2021/07/18 04:11:32;;;;;;;2.65;2.33;;;21.90;99.90;;;;;;5051385;28;20485;-69
2021/07/18 04:13:58;;;;;;;3.50;2.45;;;21.90;99.90;;;;;;5051087;28;20082;-69
2021/07/18 04:16:23;;;;;;;3.88;2.70;;;21.90;99.90;;;;;;5050805;28;20481;-69
2021/07/18 04:18:49;;;;;;;3.00;2.60;;;21.90;99.90;;;;;;5050690;28;20029;-70
2021/07/18 04:21:19;;;;;;;3.13;2.83;;;21.90;99.90;;;;;;5049681;28;20082;-69
2021/07/18 04:23:45;;;;;;;3.25;2.65;;;21.90;99.90;;;;;;5050595;28;20025;-69
2021/07/18 04:26:11;;;;;;;3.75;2.53;;;21.90;99.90;;;;;;5049860;28;20021;-69
2021/07/18 04:28:37;;;;;;;3.08;2.33;;;21.90;99.90;;;;;;5050995;28;20032;-69
2021/07/18 04:31:02;;;;;;;4.63;2.65;;;21.90;99.90;;;;;;5050909;28;20481;-69
2021/07/18 04:33:28;;;;;;;3.13;2.60;;;21.90;99.90;;;;;;5050906;28;20071;-69
2021/07/18 04:35:54;;;;;;;2.92;2.42;;;21.90;99.90;;;;;;5049508;28;20504;-69
2021/07/18 04:38:19;;;;;;;2.78;2.10;;;22.00;99.90;;;;;;5050778;28;20063;-69
2021/07/18 04:40:45;;;;;;;3.70;2.30;;;22.00;99.90;;;;;;5050815;28;20052;-70
2021/07/18 04:43:10;;;;;;;2.95;2.60;;;21.90;99.90;;;;;;5050577;28;20021;-69
2021/07/18 04:45:37;;;;;;;3.13;2.30;;;22.00;99.90;;;;;;5051225;28;20478;-69
2021/07/18 04:48:03;;;;;;;3.25;2.30;;;22.00;99.90;;;;;;5051003;28;20033;-69
2021/07/18 04:50:29;;;;;;;3.25;1.95;;;22.00;99.90;;;;;;5050740;28;20082;-69
2021/07/18 04:52:55;;;;;;;3.25;2.33;;;22.00;99.90;;;;;;5050769;28;20028;-69
2021/07/18 04:55:21;;;;;;;2.63;2.25;;;22.00;99.90;;;;;;5050013;28;20023;-70
2021/07/18 04:57:47;;;;;;;2.75;2.30;;;22.10;99.90;;;;;;5050712;28;20037;-69
2021/07/18 05:00:16;;;;;;;3.42;2.45;;;22.10;99.90;;;;;;5050178;28;20025;-69
2021/07/18 05:02:43;;;;;;;3.65;2.30;;;22.10;99.90;;;;;;5050335;28;20037;-69
2021/07/18 05:05:13;;;;;;;3.40;2.40;;;22.20;99.90;;;;;;5051406;28;20036;-69
2021/07/18 05:07:52;;;;;;;2.80;2.40;;;22.20;99.90;;;;;;5054962;28;20021;-69
2021/07/18 05:10:20;;;;;;;2.55;2.20;;;22.20;99.90;;;;;;5054115;28;20048;-69
2021/07/18 05:12:52;;;;;;;3.65;2.33;;;22.30;99.90;;;;;;5054004;28;20021;-69
2021/07/18 05:15:19;;;;;;;2.83;2.10;;;22.30;99.90;;;;;;5054340;28;20071;-69
2021/07/18 05:17:45;;;;;;;2.35;2.10;;;22.30;99.90;;;;;;5052921;28;20025;-69
2021/07/18 05:20:12;;;;;;;2.78;2.30;;;22.40;99.90;;;;;;5054165;28;20017;-69
2021/07/18 05:22:38;;;;;;;3.45;2.35;;;22.40;99.90;;;;;;5054860;28;20033;-69
2021/07/18 05:25:06;;;;;;;2.45;1.85;;;22.40;99.90;;;;;;5053607;28;20347;-69
2021/07/18 05:27:32;;;;;;;2.35;2.00;;;22.40;99.90;;;;;;5054223;28;20033;-70
2021/07/18 05:29:58;;;;;;;3.20;2.33;;;22.40;99.90;;;;;;5053773;28;20047;-69
2021/07/18 05:32:24;;;;;;;3.60;2.30;;;22.50;99.90;;;;;;5054100;28;20029;-70
2021/07/18 05:34:50;;;;;;;3.33;2.30;;;22.50;99.90;;;;;;5053715;28;20064;-70
2021/07/18 05:37:15;;;;;;;3.33;2.05;;;22.50;99.90;;;;;;5053602;28;20037;-70
2021/07/18 05:39:41;;;;;;;2.17;1.98;;;22.60;99.90;;;;;;5053405;28;20040;-69
2021/07/18 05:42:07;;;;;;;3.47;2.15;;;22.60;99.90;;;;;;5053889;28;20133;-69
2021/07/18 05:44:33;;;;;;;2.78;1.73;;;22.60;99.90;;;;;;5053531;28;20549;-69
2021/07/18 05:46:59;;;;;;;2.92;1.85;;;22.60;99.90;;;;;;5053904;28;20074;-69
2021/07/18 05:49:25;;;;;;;2.40;2.10;;;22.70;99.90;;;;;;5053645;28;20021;-69
2021/07/18 05:51:50;;;;;;;2.53;2.17;;;22.70;99.90;;;;;;5053497;28;20473;-69
2021/07/18 05:54:16;;;;;;;2.88;1.98;;;22.70;99.90;;;;;;5053668;28;20021;-69
2021/07/18 05:56:42;;;;;;;2.63;1.95;;;22.70;99.90;;;;;;5052988;28;20079;-69
2021/07/18 05:59:07;;;;;;;3.60;2.17;;;22.80;99.90;;;;;;5054547;28;20029;-69
2021/07/18 06:01:33;;;;;;;3.47;2.13;;;22.80;99.90;;;;;;5053467;28;20083;-71
2021/07/18 06:03:58;;;;;;;2.67;1.90;;;22.80;99.90;;;;;;5053332;28;20032;-71
2021/07/18 06:06:24;;;;;;;2.72;2.15;;;22.80;99.90;;;;;;5053407;28;20033;-71
2021/07/18 06:08:50;;;;;;;2.70;2.28;;;22.90;99.90;;;;;;5052696;28;20029;-70
2021/07/18 06:11:15;;;;;;;3.22;2.05;;;22.90;99.90;;;;;;5052936;28;20063;-70
2021/07/18 06:13:41;;;;;;;3.38;2.40;;;22.90;99.90;;;;;;5052476;28;20025;-70
2021/07/18 06:16:08;;;;;;;3.05;2.08;;;22.90;99.90;;;;;;5053267;28;20063;-71
2021/07/18 06:18:33;;;;;;;3.25;2.40;;;22.90;99.90;;;;;;5053549;28;20025;-70
2021/07/18 06:20:59;;;;;;;4.25;2.60;;;23.00;99.90;;;;;;5052681;28;20042;-70
2021/07/18 06:23:25;;;;;;;3.80;2.10;;;23.00;99.90;;;;;;5053160;28;20029;-70
2021/07/18 06:25:50;;;;;;;3.55;2.50;;;23.00;99.90;;;;;;5052804;28;20033;-70
2021/07/18 06:28:17;;;;;;;3.25;2.50;;;23.10;99.90;;;;;;5053087;28;20032;-70
2021/07/18 06:30:42;;;;;;;3.85;2.78;;;23.10;99.90;;;;;;5052564;28;20028;-70
2021/07/18 06:33:08;;;;;;;3.13;1.92;;;23.10;99.90;;;;;;5052481;28;20496;-70
2021/07/18 06:35:34;;;;;;;4.40;2.72;;;23.10;99.90;;;;;;5052657;28;20033;-69
2021/07/18 06:38:01;;;;;;;3.15;2.28;;;23.10;99.90;;;;;;5052283;28;20392;-70
2021/07/18 06:40:26;;;;;;;9.65;4.20;;;23.20;99.90;;;;;;5052256;28;20021;-68
2021/07/18 06:42:52;;;;;;;9.15;6.88;;;23.20;99.90;;;;;;5052410;28;20500;-69
2021/07/18 06:45:17;;;;;;;10.63;7.10;;;23.10;99.90;;;;;;5052678;28;20029;-67
2021/07/18 06:47:43;;;;;;;19.48;8.00;;;23.00;99.90;;;;;;5052361;28;20044;-76
2021/07/18 06:50:10;;;;;;;12.00;8.50;;;23.30;99.90;;;;;;5053107;28;20390;-82
2021/07/18 06:52:35;;;;;;;13.73;9.25;;;23.60;99.90;;;;;;5053200;28;20465;-76
2021/07/18 06:55:01;;;;;;;17.30;9.48;;;23.50;99.90;;;;;;5051817;28;20017;-69
2021/07/18 06:57:27;;;;;;;15.55;10.27;;;23.40;99.90;;;;;;5052279;28;20033;-69
2021/07/18 06:59:52;;;;;;;15.63;9.88;;;23.40;99.90;;;;;;5052002;28;20025;-70
2021/07/18 07:02:18;;;;;;;11.60;9.40;;;23.40;99.90;;;;;;5052302;28;20119;-70
2021/07/18 07:04:43;;;;;;;13.80;9.85;;;23.40;99.90;;;;;;5051811;28;20025;-70
2021/07/18 07:07:10;;;;;;;13.68;9.13;;;23.40;99.90;;;;;;5038485;28;20025;-70
2021/07/18 07:09:36;;;;;;;14.00;9.15;;;23.40;99.90;;;;;;5037502;28;20424;-70
2021/07/18 07:12:01;;;;;;;13.07;8.38;;;23.40;99.90;;;;;;5045387;28;20021;-70
2021/07/18 07:14:27;;;;;;;17.23;9.13;;;23.40;99.90;;;;;;5052363;28;20032;-69
2021/07/18 07:16:53;;;;;;;11.60;8.48;;;23.40;99.90;;;;;;5043003;28;20033;-72
2021/07/18 07:19:18;;;;;;;16.38;9.02;;;23.30;99.90;;;;;;5032449;28;20140;-71
2021/07/18 07:21:44;;;;;;;18.83;9.07;;;23.30;99.90;;;;;;5032956;28;20041;-73
2021/07/18 07:24:10;;;;;;;16.58;9.52;;;23.30;99.90;;;;;;5031967;28;20109;-70
2021/07/18 07:26:36;;;;;;;11.43;8.27;;;23.30;99.90;;;;;;5051387;28;20110;-73
2021/07/18 07:29:02;;;;;;;12.93;7.38;;;23.30;99.90;;;;;;5049849;28;20465;-69
2021/07/18 07:31:27;;;;;;;11.43;7.50;;;23.40;99.90;;;;;;5052093;28;20473;-71
2021/07/18 07:33:53;;;;;;;8.07;6.55;;;23.40;99.90;;;;;;5035522;28;20091;-69
2021/07/18 07:36:19;;;;;;;10.77;6.40;;;23.40;99.90;;;;;;5031879;28;20068;-72
2021/07/18 07:38:45;;;;;;;9.07;5.65;;;23.40;99.90;;;;;;5033263;28;20029;-69
2021/07/18 07:41:11;;;;;;;8.00;5.65;;;23.50;99.90;;;;;;5051670;28;20064;-69
2021/07/18 07:43:37;;;;;;;9.27;5.47;;;23.50;99.90;;;;;;5052108;28;20100;-70
2021/07/18 07:46:03;;;;;;;8.93;4.50;;;23.50;99.90;;;;;;5045164;28;20108;-69
2021/07/18 07:48:29;;;;;;;7.32;4.05;;;23.50;99.90;;;;;;5031838;28;20357;-69
2021/07/18 07:50:57;;;;;;;8.90;3.70;;;23.50;99.90;;;;;;5042728;28;20024;-68
2021/07/18 07:53:23;;;;;;;46.13;12.70;;;23.50;99.90;;;;;;5050329;28;20029;-74
2021/07/18 07:55:49;;;;;;;5.47;3.22;;;24.10;99.90;;;;;;5039403;28;20045;-73
2021/07/18 07:58:14;;;;;;;9.40;4.03;;;24.40;99.90;;;;;;5050770;28;20033;-74
2021/07/18 08:00:41;;;;;;;13.60;4.15;;;24.20;99.90;;;;;;5050878;28;20044;-72
2021/07/18 08:03:07;;;;;;;8.93;4.07;;;24.20;99.90;;;;;;5051984;28;20029;-74
2021/07/18 08:05:32;;;;;;;8.63;4.57;;;24.10;99.90;;;;;;5051085;28;20489;-75
2021/07/18 08:07:58;;;;;;;9.75;4.70;;;24.00;99.90;;;;;;5051427;28;20029;-76
2021/07/18 08:10:25;;;;;;;10.23;4.55;;;23.90;99.90;;;;;;5050750;28;20032;-76
2021/07/18 08:12:53;;;;;;;8.70;3.90;;;23.90;99.90;;;;;;5050814;28;20108;-75
2021/07/18 08:15:20;;;;;;;7.32;3.92;;;23.80;99.90;;;;;;5050877;28;20055;-76
2021/07/18 08:17:46;;;;;;;7.30;3.80;;;23.90;99.90;;;;;;5050711;28;20509;-76
2021/07/18 08:20:18;;;;;;;7.53;3.50;;;23.90;99.90;;;;;;5050913;28;20539;-77
2021/07/18 08:22:47;;;;;;;7.95;3.22;;;23.90;99.90;;;;;;5050851;28;20017;-77
2021/07/18 08:25:15;;;;;;;7.35;3.83;;;23.90;99.90;;;;;;5051144;28;20112;-76
2021/07/18 08:27:41;;;;;;;8.40;3.88;;;24.00;99.90;;;;;;5050460;28;20021;-73
2021/07/18 08:30:08;;;;;;;7.72;3.30;;;23.90;99.90;;;;;;5051144;28;20024;-74
2021/07/18 08:32:34;;;;;;;10.98;3.72;;;24.00;99.90;;;;;;5051185;28;20032;-75
2021/07/18 08:35:00;;;;;;;6.25;3.13;;;24.00;99.90;;;;;;5050278;28;20521;-75
2021/07/18 08:37:25;;;;;;;8.23;3.38;;;24.10;99.90;;;;;;5049661;28;20044;-75
2021/07/18 08:39:51;;;;;;;8.80;3.58;;;24.10;99.90;;;;;;5060147;28;20032;-77
2021/07/18 08:42:17;;;;;;;7.50;3.50;;;24.10;99.90;;;;;;5057235;28;20029;-75
2021/07/18 08:44:43;;;;;;;7.30;2.95;;;24.10;99.90;;;;;;5054568;28;20033;-75
2021/07/18 08:47:10;;;;;;;7.32;2.90;;;24.10;99.90;;;;;;5055388;28;20025;-73
2021/07/18 08:49:37;;;;;;;5.72;2.90;;;24.10;99.90;;;;;;5055203;28;20021;-73
2021/07/18 08:52:03;;;;;;;9.52;2.60;;;24.10;99.90;;;;;;5054678;28;20508;-73
2021/07/18 08:54:30;;;;;;;8.05;3.20;;;24.00;99.90;;;;;;5054953;28;20044;-74
2021/07/18 08:56:59;;;;;;;8.50;2.88;;;24.00;99.90;;;;;;5054723;28;20041;-75
2021/07/18 08:59:26;;;;;;;8.05;2.80;;;24.10;99.90;;;;;;5054423;28;20045;-74
2021/07/18 09:01:52;;;;;;;4.13;2.10;;;24.30;99.90;;;;;;5054436;28;20540;-73
2021/07/18 09:04:17;;;;;;;6.35;2.35;;;24.30;99.90;;;;;;5054508;28;20171;-72
2021/07/18 09:06:45;;;;;;;4.28;2.30;;;24.20;99.90;;;;;;5053814;28;20372;-73
2021/07/18 09:09:18;;;;;;;4.82;2.30;;;24.20;99.90;;;;;;5053072;28;20025;-72
2021/07/18 09:11:57;;;;;;;6.40;2.63;;;24.30;99.90;;;;;;5054254;28;20036;-70
2021/07/18 09:14:23;;;;;;;5.53;2.85;;;24.30;99.90;;;;;;5054031;28;20029;-71
2021/07/18 09:16:51;;;;;;;4.97;2.42;;;24.20;99.90;;;;;;5054089;28;20512;-70
2021/07/18 09:19:22;;;;;;;5.20;2.20;;;24.20;99.90;;;;;;5054395;28;20029;-70
2021/07/18 09:22:04;;;;;;;7.40;2.00;;;24.20;99.90;;;;;;5054364;28;20503;-70
2021/07/18 09:24:35;;;;;;;5.88;2.45;;;24.10;99.90;;;;;;5053833;28;20052;-70
2021/07/18 09:27:13;;;;;;;5.15;2.42;;;24.20;99.90;;;;;;5055094;28;20056;-70
2021/07/18 09:29:48;;;;;;;4.22;2.30;;;24.20;99.90;;;;;;5052496;28;20477;-70
2021/07/18 09:32:16;;;;;;;6.43;2.33;;;24.20;99.90;;;;;;5053135;28;20040;-70
2021/07/18 09:34:49;;;;;;;7.03;2.30;;;24.20;99.90;;;;;;5053965;28;20064;-70
2021/07/18 09:37:20;;;;;;;4.13;1.83;;;24.20;99.90;;;;;;5054154;28;20068;-70
2021/07/18 09:39:54;;;;;;;4.30;2.10;;;24.20;99.90;;;;;;5053953;28;20049;-70
2021/07/18 09:42:33;;;;;;;3.25;1.90;;;24.20;99.90;;;;;;5054039;28;20021;-70
2021/07/18 09:45:00;;;;;;;5.25;1.95;;;24.20;99.90;;;;;;5053738;28;20020;-71
2021/07/18 09:47:27;;;;;;;4.50;1.75;;;24.20;99.90;;;;;;5053874;28;20028;-70
2021/07/18 09:49:53;;;;;;;3.88;1.73;;;24.20;99.90;;;;;;5052731;28;20528;-70
2021/07/18 09:52:28;;;;;;;3.92;1.75;;;24.20;99.90;;;;;;5053751;28;20405;-70
2021/07/18 09:54:58;;;;;;;4.72;2.10;;;24.20;99.90;;;;;;5053595;28;20021;-70
2021/07/18 09:57:35;;;;;;;3.28;1.92;;;24.20;99.90;;;;;;5053835;28;20048;-70
2021/07/18 10:00:04;;;;;;;3.78;1.80;;;24.20;99.90;;;;;;5053539;28;20033;-69
2021/07/18 10:02:31;;;;;;;3.78;1.83;;;24.20;99.90;;;;;;5053669;28;20517;-67
2021/07/18 10:04:57;;;;;;;3.22;1.60;;;24.20;99.90;;;;;;5053308;28;20029;-70
2021/07/18 10:07:29;;;;;;;3.60;1.70;;;24.20;99.90;;;;;;5053527;28;20393;-70
2021/07/18 10:09:55;;;;;;;3.17;1.45;;;24.20;99.90;;;;;;5053389;28;20028;-70
2021/07/18 10:12:21;;;;;;;3.72;1.85;;;24.20;99.90;;;;;;5053532;28;20029;-70
2021/07/18 10:14:46;;;;;;;2.97;1.80;;;24.20;99.90;;;;;;5053300;28;20021;-70
2021/07/18 10:17:12;;;;;;;2.75;1.80;;;24.20;99.90;;;;;;5053435;28;20082;-71
2021/07/18 10:19:38;;;;;;;4.00;1.63;;;24.20;99.90;;;;;;5053625;28;20024;-71
2021/07/18 10:22:07;;;;;;;2.47;1.48;;;24.20;99.90;;;;;;5053105;28;20025;-70
2021/07/18 10:24:34;;;;;;;3.20;1.52;;;24.20;99.90;;;;;;5053355;28;20017;-69
2021/07/18 10:27:04;;;;;;;3.50;1.58;;;24.20;99.90;;;;;;5053104;28;20057;-69
2021/07/18 10:29:33;;;;;;;3.25;1.83;;;24.20;99.90;;;;;;5053563;28;20057;-69
2021/07/18 10:32:07;;;;;;;2.85;1.70;;;24.20;99.90;;;;;;5053151;28;20108;-69
2021/07/18 10:34:37;;;;;;;1.65;1.42;;;24.20;99.90;;;;;;5053187;28;20033;-70
2021/07/18 10:37:09;;;;;;;2.67;1.88;;;24.20;99.90;;;;;;5051519;28;20455;-70
2021/07/18 10:39:44;;;;;;;2.83;1.42;;;24.20;99.90;;;;;;5053466;28;20408;-70
2021/07/18 10:42:31;;;;;;;2.75;1.70;;;24.20;99.90;;;;;;5053068;28;20033;-70
2021/07/18 10:44:56;;;;;;;2.58;1.70;;;24.20;99.90;;;;;;5052552;28;20489;-69
2021/07/18 10:47:22;;;;;;;2.55;1.50;;;24.20;99.90;;;;;;5052883;28;20029;-69
2021/07/18 10:49:50;;;;;;;2.90;1.83;;;24.30;99.90;;;;;;5052670;28;20052;-69
2021/07/18 10:52:17;;;;;;;2.15;1.60;;;24.20;99.90;;;;;;5052795;28;20428;-69
2021/07/18 10:54:43;;;;;;;2.20;1.42;;;24.30;99.90;;;;;;5052336;28;20079;-70
2021/07/18 10:57:29;;;;;;;2.70;1.80;;;24.20;99.90;;;;;;5052828;28;20041;-69
2021/07/18 10:59:56;;;;;;;2.35;1.60;;;24.20;99.90;;;;;;5052621;28;20048;-69
2021/07/18 11:02:34;;;;;;;2.38;1.70;;;24.20;99.90;;;;;;5052608;28;20029;-69
2021/07/18 11:05:04;;;;;;;2.72;1.60;;;24.30;99.90;;;;;;5052196;28;20028;-69
2021/07/18 11:07:35;;;;;;;2.40;1.95;;;24.30;99.90;;;;;;5052503;28;20056;-70
2021/07/18 11:10:10;;;;;;;2.08;1.50;;;24.30;99.90;;;;;;5052288;28;20013;-69
2021/07/18 11:12:42;;;;;;;2.38;1.67;;;24.30;99.90;;;;;;5052756;28;20025;-69
2021/07/18 11:15:20;;;;;;;2.75;1.85;;;24.30;99.90;;;;;;5052723;28;20032;-69
2021/07/18 11:17:59;;;;;;;2.45;1.52;;;24.30;99.90;;;;;;5051973;28;20087;-69
2021/07/18 11:20:39;;;;;;;3.17;1.67;;;24.30;99.90;;;;;;5052383;28;20086;-69
2021/07/18 11:23:06;;;;;;;2.22;1.85;;;24.30;99.90;;;;;;5052062;28;20039;-69
2021/07/18 11:25:45;;;;;;;2.22;1.65;;;24.30;99.90;;;;;;5052236;28;20389;-69
2021/07/18 11:28:34;;;;;;;3.55;1.85;;;24.30;99.90;;;;;;5052139;28;20021;-69
2021/07/18 11:31:26;;;;;;;3.60;2.05;;;24.30;99.90;;;;;;5051993;28;20086;-69
2021/07/18 11:34:08;;;;;;;2.03;1.58;;;24.30;99.90;;;;;;5050828;28;20044;-70
2021/07/18 11:36:34;;;;;;;2.00;1.45;;;24.30;99.90;;;;;;5051978;28;20036;-70
2021/07/18 11:39:01;;;;;;;1.88;1.63;;;24.30;99.90;;;;;;5051706;28;20025;-68
2021/07/18 11:41:29;;;;;;;2.42;1.65;;;24.40;99.90;;;;;;5051810;28;20029;-69
2021/07/18 11:44:01;;;;;;;2.08;1.60;;;24.40;99.90;;;;;;5051455;28;20104;-69
2021/07/18 11:46:31;;;;;;;2.42;1.70;;;24.40;99.90;;;;;;5051740;28;20036;-69
2021/07/18 11:49:01;;;;;;;2.72;1.90;;;24.40;99.90;;;;;;5051456;28;20303;-69
2021/07/18 11:51:28;;;;;;;2.60;1.80;;;24.40;99.90;;;;;;5051532;28;20127;-69
2021/07/18 11:53:57;;;;;;;2.72;1.85;;;24.40;99.90;;;;;;5051387;28;20025;-69
2021/07/18 11:56:30;;;;;;;2.67;1.95;;;24.40;99.90;;;;;;5051500;28;20024;-69
2021/07/18 11:59:00;;;;;;;;;;;24.50;99.90;;;;;;5051814;28;20389;-69
2021/07/18 12:01:30;;;;;;;3.22;1.73;;;24.50;99.90;;;;;;5051745;28;19991;-69
2021/07/18 12:03:57;;;;;;;2.88;1.65;;;24.50;99.90;;;;;;5051079;28;20033;-69
2021/07/18 12:06:27;;;;;;;2.50;1.88;;;24.50;99.90;;;;;;5051472;28;20043;-69
2021/07/18 12:08:54;;;;;;;2.63;1.70;;;24.50;99.90;;;;;;5051206;28;20103;-69
2021/07/18 12:11:25;;;;;;;2.40;1.80;;;24.60;99.90;;;;;;5051362;28;20021;-69
2021/07/18 12:13:53;;;;;;;2.47;2.22;;;24.50;99.90;;;;;;5050762;28;20057;-69
2021/07/18 12:16:21;;;;;;;2.22;1.73;;;24.60;99.90;;;;;;5051399;28;20044;-69
2021/07/18 12:18:51;;;;;;;3.15;1.92;;;24.60;99.90;;;;;;5051154;28;20049;-69
2021/07/18 12:21:22;;;;;;;2.72;1.90;;;24.60;99.90;;;;;;5051259;28;20025;-69
2021/07/18 12:24:22;;;;;;;3.70;2.60;;;24.60;99.90;;;;;;5051042;28;20044;-70
2021/07/18 12:27:00;;;;;;;4.90;2.40;;;24.60;99.90;;;;;;5051094;28;20401;-69
2021/07/18 12:29:38;;;;;;;3.08;2.15;;;24.60;99.90;;;;;;5051249;28;20017;-69
2021/07/18 12:32:06;;;;;;;3.78;2.30;;;24.70;99.90;;;;;;5050984;28;20159;-69
2021/07/18 12:34:34;;;;;;;3.63;2.22;;;24.70;99.90;;;;;;5051175;28;20025;-69
2021/07/18 12:37:03;;;;;;;4.22;2.30;;;24.70;99.90;;;;;;5050673;28;20045;-69
2021/07/18 12:39:39;;;;;;;3.40;2.30;;;24.70;99.90;;;;;;5051071;28;20025;-69
2021/07/18 12:42:13;;;;;;;2.63;2.00;;;24.70;99.90;;;;;;5051430;28;20025;-69
2021/07/18 12:44:53;;;;;;;;;;;24.70;99.90;;;;;;5051754;28;20036;-69
2021/07/18 12:47:27;;;;;;;3.10;2.15;;;24.70;99.90;;;;;;5050994;28;19905;-69